sensor_id;sensor_type;location;lat;lon;timestamp;temperature;humidity
6008;DHT22;3032;49.484;11.112;2023-11-21T00:02:12;11.00;99.90
6008;DHT22;3032;49.484;11.112;2023-11-21T00:04:38;11.20;99.90
6008;DHT22;3032;49.484;11.112;2023-11-21T00:07:04;11.20;99.90
6008;DHT22;3032;49.484;11.112;2023-11-21T00:09:31;11.30;99.90
6008;DHT22;3032;49.484;11.112;2023-11-21T00:11:57;11.30;99.90
6008;DHT22;3032;49.484;11.112;2023-11-21T00:14:22;11.20;99.90
6008;DHT22;3032;49.484;11.112;2023-11-21T00:16:48;11.10;99.90
6008;DHT22;3032;49.484;11.112;2023-11-21T00:19:14;11.00;99.90
6008;DHT22;3032;49.484;11.112;2023-11-21T00:21:39;10.70;99.90
6008;DHT22;3032;49.484;11.112;2023-11-21T00:24:05;11.30;99.90
6008;DHT22;3032;49.484;11.112;2023-11-21T00:26:31;11.40;99.90
6008;DHT22;3032;49.484;11.112;2023-11-21T00:29:01;11.50;99.90
6008;DHT22;3032;49.484;11.112;2023-11-21T00:31:27;11.50;99.90
6008;DHT22;3032;49.484;11.112;2023-11-21T00:33:52;11.40;99.90
6008;DHT22;3032;49.484;11.112;2023-11-21T00:36:20;11.20;99.90
6008;DHT22;3032;49.484;11.112;2023-11-21T00:38:45;11.10;99.90
6008;DHT22;3032;49.484;11.112;2023-11-21T00:41:11;11.20;99.90
6008;DHT22;3032;49.484;11.112;2023-11-21T00:43:36;11.10;99.90
6008;DHT22;3032;49.484;11.112;2023-11-21T00:46:05;10.80;99.90
6008;DHT22;3032;49.484;11.112;2023-11-21T00:48:34;10.80;99.90
6008;DHT22;3032;49.484;11.112;2023-11-21T00:50:59;11.00;99.90
6008;DHT22;3032;49.484;11.112;2023-11-21T00:53:25;11.10;99.90
6008;DHT22;3032;49.484;11.112;2023-11-21T00:55:51;10.70;99.90
6008;DHT22;3032;49.484;11.112;2023-11-21T00:58:23;10.30;99.90
6008;DHT22;3032;49.484;11.112;2023-11-21T01:00:48;10.30;99.90
6008;DHT22;3032;49.484;11.112;2023-11-21T01:03:14;10.60;99.90
6008;DHT22;3032;49.484;11.112;2023-11-21T01:05:39;10.80;99.90
6008;DHT22;3032;49.484;11.112;2023-11-21T01:08:05;11.00;99.90
6008;DHT22;3032;49.484;11.112;2023-11-21T01:10:31;11.20;99.90
6008;DHT22;3032;49.484;11.112;2023-11-21T01:12:56;11.20;99.90
6008;DHT22;3032;49.484;11.112;2023-11-21T01:15:23;11.40;99.90
6008;DHT22;3032;49.484;11.112;2023-11-21T01:17:51;11.40;99.90
6008;DHT22;3032;49.484;11.112;2023-11-21T01:20:17;11.00;99.90
6008;DHT22;3032;49.484;11.112;2023-11-21T01:22:43;10.90;99.90
6008;DHT22;3032;49.484;11.112;2023-11-21T01:25:10;11.00;99.90
6008;DHT22;3032;49.484;11.112;2023-11-21T01:27:36;11.00;99.90
6008;DHT22;3032;49.484;11.112;2023-11-21T01:30:03;10.90;99.90
6008;DHT22;3032;49.484;11.112;2023-11-21T01:32:29;10.90;99.90
6008;DHT22;3032;49.484;11.112;2023-11-21T01:34:54;11.00;99.90
6008;DHT22;3032;49.484;11.112;2023-11-21T01:37:21;10.90;99.90
6008;DHT22;3032;49.484;11.112;2023-11-21T01:39:47;10.20;99.90
6008;DHT22;3032;49.484;11.112;2023-11-21T01:42:13;10.40;99.90
6008;DHT22;3032;49.484;11.112;2023-11-21T01:44:39;10.50;99.90
6008;DHT22;3032;49.484;11.112;2023-11-21T01:47:06;10.40;99.90
6008;DHT22;3032;49.484;11.112;2023-11-21T01:49:35;10.30;99.90
6008;DHT22;3032;49.484;11.112;2023-11-21T01:52:02;10.10;99.90
6008;DHT22;3032;49.484;11.112;2023-11-21T01:54:29;10.20;99.90
6008;DHT22;3032;49.484;11.112;2023-11-21T01:56:59;10.30;99.90
6008;DHT22;3032;49.484;11.112;2023-11-21T01:59:34;10.50;99.90
6008;DHT22;3032;49.484;11.112;2023-11-21T02:02:00;10.70;99.90
6008;DHT22;3032;49.484;11.112;2023-11-21T02:04:25;10.90;99.90
6008;DHT22;3032;49.484;11.112;2023-11-21T02:06:51;10.70;99.90
6008;DHT22;3032;49.484;11.112;2023-11-21T02:09:17;10.60;99.90
6008;DHT22;3032;49.484;11.112;2023-11-21T02:11:43;10.60;99.90
6008;DHT22;3032;49.484;11.112;2023-11-21T02:14:09;10.70;99.90
6008;DHT22;3032;49.484;11.112;2023-11-21T02:16:36;10.80;99.90
6008;DHT22;3032;49.484;11.112;2023-11-21T02:19:03;10.60;99.90
6008;DHT22;3032;49.484;11.112;2023-11-21T02:21:30;10.60;99.90
6008;DHT22;3032;49.484;11.112;2023-11-21T02:23:56;10.60;99.90
6008;DHT22;3032;49.484;11.112;2023-11-21T02:26:21;10.70;99.90
6008;DHT22;3032;49.484;11.112;2023-11-21T02:28:47;10.80;99.90
6008;DHT22;3032;49.484;11.112;2023-11-21T02:31:13;10.90;99.90
6008;DHT22;3032;49.484;11.112;2023-11-21T02:33:38;11.00;99.90
6008;DHT22;3032;49.484;11.112;2023-11-21T02:36:05;11.10;99.90
6008;DHT22;3032;49.484;11.112;2023-11-21T02:38:31;11.10;99.90
6008;DHT22;3032;49.484;11.112;2023-11-21T02:40:57;10.90;99.90
6008;DHT22;3032;49.484;11.112;2023-11-21T02:43:24;11.00;99.90
6008;DHT22;3032;49.484;11.112;2023-11-21T02:45:50;11.20;99.90
6008;DHT22;3032;49.484;11.112;2023-11-21T02:48:15;11.10;99.90
6008;DHT22;3032;49.484;11.112;2023-11-21T02:50:41;11.00;99.90
6008;DHT22;3032;49.484;11.112;2023-11-21T02:53:08;11.10;99.90
6008;DHT22;3032;49.484;11.112;2023-11-21T02:55:36;10.80;99.90
6008;DHT22;3032;49.484;11.112;2023-11-21T02:58:02;10.50;99.90
6008;DHT22;3032;49.484;11.112;2023-11-21T03:00:29;10.50;99.90
6008;DHT22;3032;49.484;11.112;2023-11-21T03:02:55;10.50;99.90
6008;DHT22;3032;49.484;11.112;2023-11-21T03:05:21;10.60;99.90
6008;DHT22;3032;49.484;11.112;2023-11-21T03:07:47;10.60;99.90
6008;DHT22;3032;49.484;11.112;2023-11-21T03:10:12;10.70;99.90
6008;DHT22;3032;49.484;11.112;2023-11-21T03:12:38;10.70;99.90
6008;DHT22;3032;49.484;11.112;2023-11-21T03:15:08;10.80;99.90
6008;DHT22;3032;49.484;11.112;2023-11-21T03:17:34;10.60;99.90
6008;DHT22;3032;49.484;11.112;2023-11-21T03:20:00;10.50;99.90
6008;DHT22;3032;49.484;11.112;2023-11-21T03:22:26;10.70;99.90
6008;DHT22;3032;49.484;11.112;2023-11-21T03:24:52;10.70;99.90
6008;DHT22;3032;49.484;11.112;2023-11-21T03:27:18;10.90;99.90
6008;DHT22;3032;49.484;11.112;2023-11-21T03:29:44;10.90;99.90
6008;DHT22;3032;49.484;11.112;2023-11-21T03:32:10;11.00;99.90
6008;DHT22;3032;49.484;11.112;2023-11-21T03:34:57;11.00;99.90
6008;DHT22;3032;49.484;11.112;2023-11-21T03:37:23;10.80;99.90
6008;DHT22;3032;49.484;11.112;2023-11-21T03:39:50;10.50;99.90
6008;DHT22;3032;49.484;11.112;2023-11-21T03:42:16;10.60;99.90
6008;DHT22;3032;49.484;11.112;2023-11-21T03:44:41;10.80;99.90
6008;DHT22;3032;49.484;11.112;2023-11-21T03:47:07;11.00;99.90
6008;DHT22;3032;49.484;11.112;2023-11-21T03:49:32;10.90;99.90
6008;DHT22;3032;49.484;11.112;2023-11-21T03:51:58;10.80;99.90
6008;DHT22;3032;49.484;11.112;2023-11-21T03:54:24;10.70;99.90
6008;DHT22;3032;49.484;11.112;2023-11-21T03:56:49;10.50;99.90
6008;DHT22;3032;49.484;11.112;2023-11-21T03:59:15;10.50;99.90
6008;DHT22;3032;49.484;11.112;2023-11-21T04:01:41;10.60;99.90
6008;DHT22;3032;49.484;11.112;2023-11-21T04:04:06;10.30;99.90
6008;DHT22;3032;49.484;11.112;2023-11-21T04:06:32;10.30;99.90
6008;DHT22;3032;49.484;11.112;2023-11-21T04:08:58;10.50;99.90
6008;DHT22;3032;49.484;11.112;2023-11-21T04:11:24;10.70;99.90
6008;DHT22;3032;49.484;11.112;2023-11-21T04:13:50;10.80;99.90
6008;DHT22;3032;49.484;11.112;2023-11-21T04:16:15;11.10;99.90
6008;DHT22;3032;49.484;11.112;2023-11-21T04:18:41;11.30;99.90
6008;DHT22;3032;49.484;11.112;2023-11-21T04:21:06;11.40;99.90
6008;DHT22;3032;49.484;11.112;2023-11-21T04:23:33;11.40;99.90
6008;DHT22;3032;49.484;11.112;2023-11-21T04:25:59;11.50;99.90
6008;DHT22;3032;49.484;11.112;2023-11-21T04:28:25;11.60;99.90
6008;DHT22;3032;49.484;11.112;2023-11-21T04:30:50;11.60;99.90
6008;DHT22;3032;49.484;11.112;2023-11-21T04:33:16;11.50;99.90
6008;DHT22;3032;49.484;11.112;2023-11-21T04:35:41;11.60;99.90
6008;DHT22;3032;49.484;11.112;2023-11-21T04:38:07;11.60;99.90
6008;DHT22;3032;49.484;11.112;2023-11-21T04:40:33;11.70;99.90
6008;DHT22;3032;49.484;11.112;2023-11-21T04:42:58;11.70;99.90
6008;DHT22;3032;49.484;11.112;2023-11-21T04:45:24;11.70;99.90
6008;DHT22;3032;49.484;11.112;2023-11-21T04:47:50;11.70;99.90
6008;DHT22;3032;49.484;11.112;2023-11-21T04:50:16;11.90;99.90
6008;DHT22;3032;49.484;11.112;2023-11-21T04:52:41;12.00;99.90
6008;DHT22;3032;49.484;11.112;2023-11-21T04:55:07;12.00;99.90
6008;DHT22;3032;49.484;11.112;2023-11-21T04:57:38;12.00;99.90
6008;DHT22;3032;49.484;11.112;2023-11-21T05:00:08;12.10;99.90
6008;DHT22;3032;49.484;11.112;2023-11-21T05:02:34;12.00;99.90
6008;DHT22;3032;49.484;11.112;2023-11-21T05:05:00;11.80;99.90
6008;DHT22;3032;49.484;11.112;2023-11-21T05:07:26;11.80;99.90
6008;DHT22;3032;49.484;11.112;2023-11-21T05:09:55;11.80;99.90
6008;DHT22;3032;49.484;11.112;2023-11-21T05:12:22;11.80;99.90
6008;DHT22;3032;49.484;11.112;2023-11-21T05:14:49;11.80;99.90
6008;DHT22;3032;49.484;11.112;2023-11-21T05:17:14;11.80;99.90
6008;DHT22;3032;49.484;11.112;2023-11-21T05:19:40;11.80;99.90
6008;DHT22;3032;49.484;11.112;2023-11-21T05:22:06;11.60;99.90
6008;DHT22;3032;49.484;11.112;2023-11-21T05:24:31;11.50;99.90
6008;DHT22;3032;49.484;11.112;2023-11-21T05:26:57;11.20;99.90
6008;DHT22;3032;49.484;11.112;2023-11-21T05:29:23;11.00;99.90
6008;DHT22;3032;49.484;11.112;2023-11-21T05:31:48;10.90;99.90
6008;DHT22;3032;49.484;11.112;2023-11-21T05:34:15;11.10;99.90
6008;DHT22;3032;49.484;11.112;2023-11-21T05:36:43;11.10;99.90
6008;DHT22;3032;49.484;11.112;2023-11-21T05:39:09;11.20;99.90
6008;DHT22;3032;49.484;11.112;2023-11-21T05:41:36;11.30;99.90
6008;DHT22;3032;49.484;11.112;2023-11-21T05:44:02;11.40;99.90
6008;DHT22;3032;49.484;11.112;2023-11-21T05:46:27;11.40;99.90
6008;DHT22;3032;49.484;11.112;2023-11-21T05:48:53;11.40;99.90
6008;DHT22;3032;49.484;11.112;2023-11-21T05:51:18;11.20;99.90
6008;DHT22;3032;49.484;11.112;2023-11-21T05:53:44;11.10;99.90
6008;DHT22;3032;49.484;11.112;2023-11-21T05:56:10;11.20;99.90
6008;DHT22;3032;49.484;11.112;2023-11-21T05:58:35;11.10;99.90
6008;DHT22;3032;49.484;11.112;2023-11-21T06:01:01;11.30;99.90
6008;DHT22;3032;49.484;11.112;2023-11-21T06:03:28;11.20;99.90
6008;DHT22;3032;49.484;11.112;2023-11-21T06:05:54;11.30;99.90
6008;DHT22;3032;49.484;11.112;2023-11-21T06:08:19;11.40;99.90
6008;DHT22;3032;49.484;11.112;2023-11-21T06:10:45;11.40;99.90
6008;DHT22;3032;49.484;11.112;2023-11-21T06:13:14;11.50;99.90
6008;DHT22;3032;49.484;11.112;2023-11-21T06:15:39;11.10;99.90
6008;DHT22;3032;49.484;11.112;2023-11-21T06:18:05;11.10;99.90
6008;DHT22;3032;49.484;11.112;2023-11-21T06:20:35;10.90;99.90
6008;DHT22;3032;49.484;11.112;2023-11-21T06:23:02;10.90;99.90
6008;DHT22;3032;49.484;11.112;2023-11-21T06:25:29;10.90;99.90
6008;DHT22;3032;49.484;11.112;2023-11-21T06:27:55;11.00;99.90
6008;DHT22;3032;49.484;11.112;2023-11-21T06:30:21;11.00;99.90
6008;DHT22;3032;49.484;11.112;2023-11-21T06:32:48;11.10;99.90
6008;DHT22;3032;49.484;11.112;2023-11-21T06:35:15;10.80;99.90
6008;DHT22;3032;49.484;11.112;2023-11-21T06:37:41;10.60;99.90
6008;DHT22;3032;49.484;11.112;2023-11-21T06:40:07;10.50;99.90
6008;DHT22;3032;49.484;11.112;2023-11-21T06:42:32;10.70;99.90
6008;DHT22;3032;49.484;11.112;2023-11-21T06:44:59;11.00;99.90
6008;DHT22;3032;49.484;11.112;2023-11-21T06:47:27;11.00;99.90
6008;DHT22;3032;49.484;11.112;2023-11-21T06:49:54;10.80;99.90
6008;DHT22;3032;49.484;11.112;2023-11-21T06:52:20;11.00;99.90
6008;DHT22;3032;49.484;11.112;2023-11-21T06:54:47;11.20;99.90
6008;DHT22;3032;49.484;11.112;2023-11-21T06:57:13;11.30;99.90
6008;DHT22;3032;49.484;11.112;2023-11-21T06:59:38;11.40;99.90
6008;DHT22;3032;49.484;11.112;2023-11-21T07:04:52;11.50;99.90
6008;DHT22;3032;49.484;11.112;2023-11-21T07:10:29;11.70;99.90
6008;DHT22;3032;49.484;11.112;2023-11-21T07:12:55;11.80;99.90
6008;DHT22;3032;49.484;11.112;2023-11-21T07:15:22;11.80;99.90
6008;DHT22;3032;49.484;11.112;2023-11-21T07:17:48;11.90;99.90
6008;DHT22;3032;49.484;11.112;2023-11-21T07:20:13;12.00;99.90
6008;DHT22;3032;49.484;11.112;2023-11-21T07:22:42;12.10;99.90
6008;DHT22;3032;49.484;11.112;2023-11-21T07:25:08;12.30;99.90
6008;DHT22;3032;49.484;11.112;2023-11-21T07:27:34;12.40;99.90
6008;DHT22;3032;49.484;11.112;2023-11-21T07:30:01;12.20;99.90
6008;DHT22;3032;49.484;11.112;2023-11-21T07:32:30;12.30;99.90
6008;DHT22;3032;49.484;11.112;2023-11-21T07:34:56;12.30;99.90
6008;DHT22;3032;49.484;11.112;2023-11-21T07:37:23;12.20;99.90
6008;DHT22;3032;49.484;11.112;2023-11-21T07:39:49;12.30;99.90
6008;DHT22;3032;49.484;11.112;2023-11-21T07:42:14;12.30;99.90
6008;DHT22;3032;49.484;11.112;2023-11-21T07:44:40;12.20;99.90
6008;DHT22;3032;49.484;11.112;2023-11-21T07:47:05;12.30;99.90
6008;DHT22;3032;49.484;11.112;2023-11-21T07:49:31;12.40;99.90
6008;DHT22;3032;49.484;11.112;2023-11-21T07:51:57;12.50;99.90
6008;DHT22;3032;49.484;11.112;2023-11-21T07:54:22;12.50;99.90
6008;DHT22;3032;49.484;11.112;2023-11-21T07:56:48;12.60;99.90
6008;DHT22;3032;49.484;11.112;2023-11-21T07:59:13;12.70;99.90
6008;DHT22;3032;49.484;11.112;2023-11-21T08:01:39;12.70;99.90
6008;DHT22;3032;49.484;11.112;2023-11-21T08:04:06;12.90;99.90
6008;DHT22;3032;49.484;11.112;2023-11-21T08:06:32;13.00;99.90
6008;DHT22;3032;49.484;11.112;2023-11-21T08:08:58;13.10;99.90
6008;DHT22;3032;49.484;11.112;2023-11-21T08:11:24;12.90;99.90
6008;DHT22;3032;49.484;11.112;2023-11-21T08:13:49;13.20;99.90
6008;DHT22;3032;49.484;11.112;2023-11-21T08:16:15;13.00;99.90
6008;DHT22;3032;49.484;11.112;2023-11-21T08:18:42;13.00;99.90
6008;DHT22;3032;49.484;11.112;2023-11-21T08:21:07;12.90;99.90
6008;DHT22;3032;49.484;11.112;2023-11-21T08:23:33;12.90;99.90
6008;DHT22;3032;49.484;11.112;2023-11-21T08:25:59;13.00;99.90
6008;DHT22;3032;49.484;11.112;2023-11-21T08:28:25;13.00;99.90
6008;DHT22;3032;49.484;11.112;2023-11-21T08:30:53;13.10;99.90
6008;DHT22;3032;49.484;11.112;2023-11-21T08:33:22;13.20;99.90
6008;DHT22;3032;49.484;11.112;2023-11-21T08:35:48;13.20;99.90
6008;DHT22;3032;49.484;11.112;2023-11-21T08:38:13;13.30;99.90
6008;DHT22;3032;49.484;11.112;2023-11-21T08:40:39;13.30;99.90
6008;DHT22;3032;49.484;11.112;2023-11-21T08:43:04;13.30;99.90
6008;DHT22;3032;49.484;11.112;2023-11-21T08:51:55;13.30;99.90
6008;DHT22;3032;49.484;11.112;2023-11-21T08:54:23;13.50;99.90
6008;DHT22;3032;49.484;11.112;2023-11-21T08:56:48;13.60;99.90
6008;DHT22;3032;49.484;11.112;2023-11-21T08:59:15;13.70;99.90
6008;DHT22;3032;49.484;11.112;2023-11-21T09:01:41;13.70;99.90
6008;DHT22;3032;49.484;11.112;2023-11-21T09:04:08;13.90;99.90
6008;DHT22;3032;49.484;11.112;2023-11-21T09:07:10;13.90;99.90
6008;DHT22;3032;49.484;11.112;2023-11-21T09:58:51;14.70;99.90
6008;DHT22;3032;49.484;11.112;2023-11-21T10:11:15;15.20;99.90
6008;DHT22;3032;49.484;11.112;2023-11-21T10:13:44;15.20;99.90
6008;DHT22;3032;49.484;11.112;2023-11-21T10:16:14;15.10;99.90
6008;DHT22;3032;49.484;11.112;2023-11-21T10:18:41;15.30;99.90
6008;DHT22;3032;49.484;11.112;2023-11-21T10:21:08;15.50;99.90
6008;DHT22;3032;49.484;11.112;2023-11-21T10:23:34;15.40;99.90
6008;DHT22;3032;49.484;11.112;2023-11-21T10:26:00;15.80;99.90
6008;DHT22;3032;49.484;11.112;2023-11-21T10:28:26;16.10;99.90
6008;DHT22;3032;49.484;11.112;2023-11-21T10:30:52;16.40;99.90
6008;DHT22;3032;49.484;11.112;2023-11-21T10:33:27;16.20;99.90
6008;DHT22;3032;49.484;11.112;2023-11-21T10:35:53;15.60;99.90
6008;DHT22;3032;49.484;11.112;2023-11-21T10:38:21;15.20;99.90
6008;DHT22;3032;49.484;11.112;2023-11-21T10:40:48;15.10;99.90
6008;DHT22;3032;49.484;11.112;2023-11-21T10:43:15;15.20;99.90
6008;DHT22;3032;49.484;11.112;2023-11-21T10:45:41;15.10;99.90
6008;DHT22;3032;49.484;11.112;2023-11-21T10:48:09;15.10;99.90
6008;DHT22;3032;49.484;11.112;2023-11-21T10:50:36;15.40;99.90
6008;DHT22;3032;49.484;11.112;2023-11-21T10:53:03;15.40;99.90
6008;DHT22;3032;49.484;11.112;2023-11-21T10:55:29;15.60;99.90
6008;DHT22;3032;49.484;11.112;2023-11-21T10:57:59;15.50;99.90
6008;DHT22;3032;49.484;11.112;2023-11-21T11:00:26;15.40;99.90
6008;DHT22;3032;49.484;11.112;2023-11-21T11:02:53;15.40;99.90
6008;DHT22;3032;49.484;11.112;2023-11-21T11:05:23;15.30;99.90
6008;DHT22;3032;49.484;11.112;2023-11-21T11:07:58;15.20;99.90
6008;DHT22;3032;49.484;11.112;2023-11-21T11:10:28;15.70;99.90
6008;DHT22;3032;49.484;11.112;2023-11-21T11:12:55;16.00;99.90
6008;DHT22;3032;49.484;11.112;2023-11-21T11:15:21;15.90;99.90
6008;DHT22;3032;49.484;11.112;2023-11-21T11:17:48;16.10;99.90
6008;DHT22;3032;49.484;11.112;2023-11-21T11:20:15;16.20;99.90
6008;DHT22;3032;49.484;11.112;2023-11-21T11:26:04;16.30;99.90
6008;DHT22;3032;49.484;11.112;2023-11-21T11:28:46;16.20;99.90
6008;DHT22;3032;49.484;11.112;2023-11-21T11:31:27;15.90;99.90
6008;DHT22;3032;49.484;11.112;2023-11-21T11:34:11;15.90;99.90
6008;DHT22;3032;49.484;11.112;2023-11-21T11:36:53;15.70;99.90
6008;DHT22;3032;49.484;11.112;2023-11-21T11:39:41;15.60;99.90
6008;DHT22;3032;49.484;11.112;2023-11-21T11:42:12;16.20;99.90
6008;DHT22;3032;49.484;11.112;2023-11-21T11:47:32;15.30;99.90
6008;DHT22;3032;49.484;11.112;2023-11-21T11:50:11;15.20;99.90
6008;DHT22;3032;49.484;11.112;2023-11-21T11:52:47;15.00;99.90
6008;DHT22;3032;49.484;11.112;2023-11-21T11:55:18;15.00;99.90
6008;DHT22;3032;49.484;11.112;2023-11-21T11:57:45;15.10;99.90
6008;DHT22;3032;49.484;11.112;2023-11-21T12:02:58;15.20;99.90
6008;DHT22;3032;49.484;11.112;2023-11-21T12:05:25;15.20;99.90
6008;DHT22;3032;49.484;11.112;2023-11-21T12:07:55;15.20;99.90
6008;DHT22;3032;49.484;11.112;2023-11-21T12:10:29;15.30;99.90
6008;DHT22;3032;49.484;11.112;2023-11-21T12:12:57;15.30;99.90
6008;DHT22;3032;49.484;11.112;2023-11-21T12:15:24;15.30;99.90
6008;DHT22;3032;49.484;11.112;2023-11-21T12:17:51;15.30;99.90
6008;DHT22;3032;49.484;11.112;2023-11-21T12:20:22;15.50;99.90
6008;DHT22;3032;49.484;11.112;2023-11-21T12:22:52;15.30;99.90
6008;DHT22;3032;49.484;11.112;2023-11-21T12:25:20;15.50;99.90
6008;DHT22;3032;49.484;11.112;2023-11-21T12:27:50;15.50;99.90
6008;DHT22;3032;49.484;11.112;2023-11-21T12:30:18;15.40;99.90
6008;DHT22;3032;49.484;11.112;2023-11-21T12:32:47;15.50;99.90
6008;DHT22;3032;49.484;11.112;2023-11-21T12:35:13;15.30;99.90
6008;DHT22;3032;49.484;11.112;2023-11-21T12:37:40;15.40;99.90
6008;DHT22;3032;49.484;11.112;2023-11-21T12:40:10;15.50;99.90
6008;DHT22;3032;49.484;11.112;2023-11-21T12:42:48;15.40;99.90
6008;DHT22;3032;49.484;11.112;2023-11-21T12:47:43;15.10;99.90
6008;DHT22;3032;49.484;11.112;2023-11-21T12:50:10;14.90;99.90
6008;DHT22;3032;49.484;11.112;2023-11-21T12:52:45;14.80;99.90
6008;DHT22;3032;49.484;11.112;2023-11-21T12:55:16;14.70;99.90
6008;DHT22;3032;49.484;11.112;2023-11-21T12:57:44;14.90;99.90
6008;DHT22;3032;49.484;11.112;2023-11-21T13:00:10;15.10;99.90
6008;DHT22;3032;49.484;11.112;2023-11-21T13:02:41;15.00;99.90
6008;DHT22;3032;49.484;11.112;2023-11-21T13:05:08;14.80;99.90
6008;DHT22;3032;49.484;11.112;2023-11-21T13:07:44;14.90;99.90
6008;DHT22;3032;49.484;11.112;2023-11-21T13:10:13;14.90;99.90
6008;DHT22;3032;49.484;11.112;2023-11-21T13:12:46;14.60;99.90
6008;DHT22;3032;49.484;11.112;2023-11-21T13:15:14;14.60;99.90
6008;DHT22;3032;49.484;11.112;2023-11-21T13:17:46;14.70;99.90
6008;DHT22;3032;49.484;11.112;2023-11-21T13:20:12;14.60;99.90
6008;DHT22;3032;49.484;11.112;2023-11-21T13:22:56;14.70;99.90
6008;DHT22;3032;49.484;11.112;2023-11-21T13:25:29;14.90;99.90
6008;DHT22;3032;49.484;11.112;2023-11-21T13:27:57;14.90;99.90
6008;DHT22;3032;49.484;11.112;2023-11-21T13:30:24;14.50;99.90
6008;DHT22;3032;49.484;11.112;2023-11-21T13:32:55;14.00;99.90
6008;DHT22;3032;49.484;11.112;2023-11-21T13:35:27;14.00;99.90
6008;DHT22;3032;49.484;11.112;2023-11-21T13:38:02;13.80;99.90
6008;DHT22;3032;49.484;11.112;2023-11-21T13:40:29;13.80;99.90
6008;DHT22;3032;49.484;11.112;2023-11-21T13:42:54;13.80;99.90
6008;DHT22;3032;49.484;11.112;2023-11-21T13:45:23;13.90;99.90
6008;DHT22;3032;49.484;11.112;2023-11-21T13:47:51;13.90;99.90
6008;DHT22;3032;49.484;11.112;2023-11-21T13:50:20;14.30;99.90
6008;DHT22;3032;49.484;11.112;2023-11-21T13:52:49;13.70;99.90
6008;DHT22;3032;49.484;11.112;2023-11-21T13:55:26;13.80;99.90
6008;DHT22;3032;49.484;11.112;2023-11-21T13:57:52;13.90;99.90
6008;DHT22;3032;49.484;11.112;2023-11-21T14:00:19;14.20;99.90
6008;DHT22;3032;49.484;11.112;2023-11-21T14:03:03;14.30;99.90
6008;DHT22;3032;49.484;11.112;2023-11-21T14:05:33;14.30;99.90
6008;DHT22;3032;49.484;11.112;2023-11-21T14:07:59;14.30;99.90
6008;DHT22;3032;49.484;11.112;2023-11-21T14:10:30;14.60;99.90
6008;DHT22;3032;49.484;11.112;2023-11-21T14:13:06;14.70;99.90
6008;DHT22;3032;49.484;11.112;2023-11-21T14:15:32;14.80;99.90
6008;DHT22;3032;49.484;11.112;2023-11-21T14:17:59;14.60;99.90
6008;DHT22;3032;49.484;11.112;2023-11-21T14:20:27;14.70;99.90
6008;DHT22;3032;49.484;11.112;2023-11-21T14:22:54;14.80;99.90
6008;DHT22;3032;49.484;11.112;2023-11-21T14:25:20;14.80;99.90
6008;DHT22;3032;49.484;11.112;2023-11-21T14:27:47;14.70;99.90
6008;DHT22;3032;49.484;11.112;2023-11-21T14:30:13;14.70;99.90
6008;DHT22;3032;49.484;11.112;2023-11-21T14:32:40;14.70;99.90
6008;DHT22;3032;49.484;11.112;2023-11-21T14:35:06;14.80;99.90
6008;DHT22;3032;49.484;11.112;2023-11-21T14:37:34;14.80;99.90
6008;DHT22;3032;49.484;11.112;2023-11-21T14:40:00;14.60;99.90
6008;DHT22;3032;49.484;11.112;2023-11-21T14:42:26;14.50;99.90
6008;DHT22;3032;49.484;11.112;2023-11-21T14:44:54;14.30;99.90
6008;DHT22;3032;49.484;11.112;2023-11-21T14:47:25;14.10;99.90
6008;DHT22;3032;49.484;11.112;2023-11-21T14:49:52;14.10;99.90
6008;DHT22;3032;49.484;11.112;2023-11-21T14:52:19;14.00;99.90
6008;DHT22;3032;49.484;11.112;2023-11-21T14:55:03;13.90;99.90
6008;DHT22;3032;49.484;11.112;2023-11-21T14:57:48;13.70;99.90
6008;DHT22;3032;49.484;11.112;2023-11-21T15:00:18;13.40;99.90
6008;DHT22;3032;49.484;11.112;2023-11-21T15:03:17;13.20;99.90
6008;DHT22;3032;49.484;11.112;2023-11-21T15:05:58;13.20;99.90
6008;DHT22;3032;49.484;11.112;2023-11-21T15:08:25;13.10;99.90
6008;DHT22;3032;49.484;11.112;2023-11-21T15:10:57;13.10;99.90
6008;DHT22;3032;49.484;11.112;2023-11-21T15:13:23;13.10;99.90
6008;DHT22;3032;49.484;11.112;2023-11-21T15:15:50;12.90;99.90
6008;DHT22;3032;49.484;11.112;2023-11-21T15:18:16;12.90;99.90
6008;DHT22;3032;49.484;11.112;2023-11-21T15:20:42;12.80;99.90
6008;DHT22;3032;49.484;11.112;2023-11-21T15:23:09;12.90;99.90
6008;DHT22;3032;49.484;11.112;2023-11-21T15:25:35;12.90;99.90
6008;DHT22;3032;49.484;11.112;2023-11-21T15:28:02;12.80;99.90
6008;DHT22;3032;49.484;11.112;2023-11-21T15:30:28;12.80;99.90
6008;DHT22;3032;49.484;11.112;2023-11-21T15:32:59;12.70;99.90
6008;DHT22;3032;49.484;11.112;2023-11-21T15:35:25;12.70;99.90
6008;DHT22;3032;49.484;11.112;2023-11-21T15:37:53;12.60;99.90
6008;DHT22;3032;49.484;11.112;2023-11-21T15:40:23;12.50;99.90
6008;DHT22;3032;49.484;11.112;2023-11-21T15:42:48;12.50;99.90
6008;DHT22;3032;49.484;11.112;2023-11-21T15:45:15;12.50;99.90
6008;DHT22;3032;49.484;11.112;2023-11-21T15:47:44;12.50;99.90
6008;DHT22;3032;49.484;11.112;2023-11-21T15:50:09;12.50;99.90
6008;DHT22;3032;49.484;11.112;2023-11-21T15:52:36;12.50;99.90
6008;DHT22;3032;49.484;11.112;2023-11-21T15:55:02;12.50;99.90
6008;DHT22;3032;49.484;11.112;2023-11-21T15:57:27;12.30;99.90
6008;DHT22;3032;49.484;11.112;2023-11-21T15:59:54;12.30;99.90
6008;DHT22;3032;49.484;11.112;2023-11-21T16:02:19;12.30;99.90
6008;DHT22;3032;49.484;11.112;2023-11-21T16:04:45;12.10;99.90
6008;DHT22;3032;49.484;11.112;2023-11-21T16:07:11;12.10;99.90
6008;DHT22;3032;49.484;11.112;2023-11-21T16:09:37;12.20;99.90
6008;DHT22;3032;49.484;11.112;2023-11-21T16:12:05;12.20;99.90
6008;DHT22;3032;49.484;11.112;2023-11-21T16:14:33;12.10;99.90
6008;DHT22;3032;49.484;11.112;2023-11-21T16:17:04;12.00;99.90
6008;DHT22;3032;49.484;11.112;2023-11-21T16:19:32;12.00;99.90
6008;DHT22;3032;49.484;11.112;2023-11-21T16:21:58;11.90;99.90
6008;DHT22;3032;49.484;11.112;2023-11-21T16:24:25;11.80;99.90
6008;DHT22;3032;49.484;11.112;2023-11-21T16:26:52;11.90;99.90
6008;DHT22;3032;49.484;11.112;2023-11-21T16:29:18;12.00;99.90
6008;DHT22;3032;49.484;11.112;2023-11-21T16:31:44;12.00;99.90
6008;DHT22;3032;49.484;11.112;2023-11-21T16:34:12;12.00;99.90
6008;DHT22;3032;49.484;11.112;2023-11-21T16:36:41;12.10;99.90
6008;DHT22;3032;49.484;11.112;2023-11-21T16:39:08;12.10;99.90
6008;DHT22;3032;49.484;11.112;2023-11-21T16:41:40;12.20;99.90
6008;DHT22;3032;49.484;11.112;2023-11-21T16:44:16;12.20;99.90
6008;DHT22;3032;49.484;11.112;2023-11-21T16:46:46;12.30;99.90
6008;DHT22;3032;49.484;11.112;2023-11-21T16:49:12;12.30;99.90
6008;DHT22;3032;49.484;11.112;2023-11-21T16:51:38;12.30;99.90
6008;DHT22;3032;49.484;11.112;2023-11-21T16:54:04;12.30;99.90
6008;DHT22;3032;49.484;11.112;2023-11-21T16:56:29;12.30;99.90
6008;DHT22;3032;49.484;11.112;2023-11-21T16:58:55;12.30;99.90
6008;DHT22;3032;49.484;11.112;2023-11-21T17:01:21;12.40;99.90
6008;DHT22;3032;49.484;11.112;2023-11-21T17:03:47;12.40;99.90
6008;DHT22;3032;49.484;11.112;2023-11-21T17:06:14;12.40;99.90
6008;DHT22;3032;49.484;11.112;2023-11-21T17:08:39;12.40;99.90
6008;DHT22;3032;49.484;11.112;2023-11-21T17:11:05;12.50;99.90